Time;durP1;ratioP1;P1;durP2;ratioP2;P2;SDS_P1;SDS_P2;PMS_P1;PMS_P2;Temp;Humidity;BMP_temperature;BMP_pressure;BME280_temperature;BME280_humidity;BME280_pressure;Samples;Min_cycle;Max_cycle;Signal;HPM_P1;HPM_P2
2021/12/28 00:01:27;;;;;;;30.92;15.25;;;-4.60;99.90;;;;;;4959072;29;20099;-96
2021/12/28 00:03:53;;;;;;;37.92;17.70;;;-4.50;99.90;;;;;;4941391;29;20058;-94
2021/12/28 00:06:20;;;;;;;34.35;16.40;;;-4.50;99.90;;;;;;4941675;29;20027;-96
2021/12/28 00:08:46;;;;;;;27.02;13.82;;;-4.40;99.90;;;;;;4941542;29;20466;-96
2021/12/28 00:11:13;;;;;;;28.40;14.20;;;-4.40;99.90;;;;;;4941463;29;20027;-94
2021/12/28 00:13:40;;;;;;;25.88;13.52;;;-4.40;99.90;;;;;;4941438;29;20117;-95
2021/12/28 00:18:34;;;;;;;27.42;14.30;;;-4.50;99.90;;;;;;4958575;29;20055;-96
2021/12/28 00:21:02;;;;;;;26.23;12.52;;;-4.50;99.90;;;;;;4941356;29;20027;-95
2021/12/28 00:23:37;;;;;;;22.90;11.93;;;-4.50;99.90;;;;;;4941223;29;20038;-95
2021/12/28 00:26:04;;;;;;;24.77;11.90;;;-4.50;99.90;;;;;;4941285;29;20035;-95
2021/12/28 00:28:30;;;;;;;28.88;14.70;;;-4.30;99.90;;;;;;4941375;29;20485;-95
2021/12/28 00:30:56;;;;;;;27.33;14.00;;;-4.30;99.90;;;;;;4941421;29;20023;-95
2021/12/28 00:33:24;;;;;;;28.70;13.68;;;-4.30;99.90;;;;;;4941199;29;20493;-95
2021/12/28 00:35:50;;;;;;;23.77;10.98;;;-4.30;99.90;;;;;;4941127;29;20466;-94
2021/12/28 00:38:21;;;;;;;25.45;13.23;;;-4.30;99.90;;;;;;4940960;29;20037;-95
2021/12/28 00:40:49;;;;;;;25.85;12.93;;;-4.30;99.90;;;;;;4941059;29;20470;-95
2021/12/28 00:43:15;;;;;;;26.63;13.02;;;-4.30;99.90;;;;;;4940877;29;20126;-95
2021/12/28 00:45:41;;;;;;;29.85;14.23;;;-4.20;99.90;;;;;;4940713;29;20031;-95
2021/12/28 00:48:06;;;;;;;28.95;13.23;;;-4.20;99.90;;;;;;4940609;28;20074;-95
2021/12/28 00:50:32;;;;;;;24.27;12.13;;;-4.20;99.90;;;;;;4940872;29;20031;-95
2021/12/28 00:52:58;;;;;;;30.10;14.80;;;-4.20;99.90;;;;;;4940834;29;20039;-95
2021/12/28 00:55:24;;;;;;;27.83;12.82;;;-4.30;99.90;;;;;;4940704;29;20027;-96
2021/12/28 00:57:51;;;;;;;26.80;14.18;;;-4.20;99.90;;;;;;4940973;29;20099;-96
2021/12/28 01:00:23;;;;;;;31.67;13.95;;;-4.20;99.90;;;;;;4940386;29;20070;-96
2021/12/28 01:02:50;;;;;;;28.50;13.65;;;-4.20;99.90;;;;;;4940442;29;20035;-94
2021/12/28 01:05:16;;;;;;;27.75;13.70;;;-4.20;99.90;;;;;;4940414;29;20019;-96
2021/12/28 01:07:42;;;;;;;24.75;13.18;;;-4.20;99.90;;;;;;4939611;29;20118;-95
2021/12/28 01:10:12;;;;;;;28.60;13.88;;;-4.20;99.90;;;;;;4940606;29;20427;-95
2021/12/28 01:12:38;;;;;;;27.85;13.40;;;-4.30;99.90;;;;;;4940605;29;20414;-96
2021/12/28 01:15:06;;;;;;;31.88;14.25;;;-4.20;99.90;;;;;;4940309;29;20047;-96
2021/12/28 01:17:33;;;;;;;28.52;14.65;;;-4.20;99.90;;;;;;4940298;29;20114;-95
2021/12/28 01:19:59;;;;;;;25.67;11.93;;;-4.30;99.90;;;;;;4940095;29;20023;-95
2021/12/28 01:22:25;;;;;;;26.77;13.15;;;-4.30;99.90;;;;;;4940300;29;20019;-95
2021/12/28 01:24:51;;;;;;;25.95;13.25;;;-4.40;99.90;;;;;;4940107;29;20110;-96
2021/12/28 01:27:16;;;;;;;24.85;12.52;;;-4.50;99.90;;;;;;4940223;29;20039;-96
2021/12/28 01:29:42;;;;;;;25.88;12.75;;;-4.50;99.90;;;;;;4940152;29;20027;-96
2021/12/28 01:32:08;;;;;;;24.20;12.48;;;-4.60;99.90;;;;;;4940106;29;20026;-95
2021/12/28 01:34:34;;;;;;;22.25;12.50;;;-4.60;99.90;;;;;;4940084;29;20031;-96
2021/12/28 01:37:00;;;;;;;23.67;11.75;;;-4.50;99.90;;;;;;4939888;29;20119;-96
2021/12/28 01:39:26;;;;;;;20.98;11.70;;;-4.50;99.90;;;;;;4939953;29;20454;-95
2021/12/28 01:41:52;;;;;;;26.17;12.55;;;-4.60;99.90;;;;;;4939826;29;20058;-96
2021/12/28 01:44:18;;;;;;;22.85;12.88;;;-4.60;99.90;;;;;;4939807;29;20027;-96
2021/12/28 01:46:44;;;;;;;23.33;12.77;;;-4.60;99.90;;;;;;4939581;29;20027;-95
2021/12/28 01:49:10;;;;;;;29.13;12.80;;;-4.60;99.90;;;;;;4939850;29;20043;-95
2021/12/28 01:51:36;;;;;;;23.95;13.10;;;-4.70;99.90;;;;;;4939808;29;20050;-96
2021/12/28 01:54:03;;;;;;;23.30;12.55;;;-4.70;99.90;;;;;;4939849;29;20034;-96
2021/12/28 01:56:34;;;;;;;23.02;12.20;;;-4.60;99.90;;;;;;4939535;29;20035;-96
2021/12/28 01:59:00;;;;;;;23.65;12.32;;;-4.70;99.90;;;;;;4939679;29;20473;-96
2021/12/28 02:01:27;;;;;;;26.20;12.38;;;-4.60;99.90;;;;;;4939637;29;20031;-95
2021/12/28 02:03:53;;;;;;;24.67;12.52;;;-4.70;99.90;;;;;;4939551;29;20031;-96
2021/12/28 02:06:19;;;;;;;22.40;11.75;;;-4.70;99.90;;;;;;4939424;29;20393;-95
2021/12/28 02:08:45;;;;;;;25.48;11.85;;;-4.70;99.90;;;;;;4939586;29;20167;-96
2021/12/28 02:11:13;;;;;;;26.30;14.00;;;-4.70;99.90;;;;;;4939610;29;20027;-94
2021/12/28 02:13:39;;;;;;;24.80;12.63;;;-4.70;99.90;;;;;;4939923;29;20031;-95
2021/12/28 02:16:05;;;;;;;26.25;12.27;;;-4.70;99.90;;;;;;4939512;29;20122;-96
2021/12/28 02:18:32;;;;;;;23.38;11.60;;;-4.60;99.90;;;;;;4939322;29;20114;-96
2021/12/28 02:20:59;;;;;;;27.65;12.82;;;-4.60;99.90;;;;;;4939264;29;20033;-96
2021/12/28 02:23:25;;;;;;;25.35;12.57;;;-4.50;99.90;;;;;;4939116;29;20027;-95
2021/12/28 02:25:52;;;;;;;24.02;13.13;;;-4.60;99.90;;;;;;4939450;29;20027;-96
2021/12/28 02:28:18;;;;;;;23.80;12.52;;;-4.60;99.90;;;;;;4939402;29;20028;-96
2021/12/28 02:30:47;;;;;;;26.65;13.75;;;-4.60;99.90;;;;;;4939318;29;20023;-96
2021/12/28 02:33:13;;;;;;;26.05;12.15;;;-4.60;99.90;;;;;;4939430;29;20042;-95
2021/12/28 02:35:40;;;;;;;24.25;11.95;;;-4.60;99.90;;;;;;4939356;29;20031;-95
2021/12/28 02:38:07;;;;;;;23.33;12.55;;;-4.50;99.90;;;;;;4939154;29;20023;-96
2021/12/28 02:40:34;;;;;;;26.65;12.48;;;-4.60;99.90;;;;;;4939334;29;20035;-96
2021/12/28 02:43:02;;;;;;;25.38;12.00;;;-4.50;99.90;;;;;;4939037;29;20193;-96
2021/12/28 02:45:31;;;;;;;27.52;13.45;;;-4.50;99.90;;;;;;4939134;29;20047;-95
2021/12/28 02:47:58;;;;;;;24.63;12.27;;;-4.50;99.90;;;;;;4939127;29;20128;-95
2021/12/28 02:50:28;;;;;;;25.50;12.73;;;-4.50;99.90;;;;;;4938838;29;20047;-96
2021/12/28 02:52:54;;;;;;;25.75;12.30;;;-4.50;99.90;;;;;;4939226;29;20031;-96
2021/12/28 02:55:23;;;;;;;26.92;12.95;;;-4.50;99.90;;;;;;4939765;29;20359;-95
2021/12/28 02:58:10;;;;;;;26.55;12.48;;;-4.50;99.90;;;;;;4939074;29;20055;-95
2021/12/28 03:00:41;;;;;;;24.55;12.38;;;-4.40;99.90;;;;;;4928023;29;20028;-96
2021/12/28 03:03:15;;;;;;;25.35;12.43;;;-4.40;99.90;;;;;;4935764;29;20431;-96
2021/12/28 03:05:44;;;;;;;26.85;12.88;;;-4.40;99.90;;;;;;4935917;29;20038;-95
2021/12/28 03:08:11;;;;;;;24.45;12.18;;;-4.30;99.90;;;;;;4935835;29;20028;-95
2021/12/28 03:10:39;;;;;;;24.75;11.65;;;-4.40;99.90;;;;;;4938956;29;20020;-96
2021/12/28 03:13:07;;;;;;;27.60;13.00;;;-4.30;99.90;;;;;;4938980;29;20114;-96
2021/12/28 03:15:33;;;;;;;23.75;12.38;;;-4.30;99.90;;;;;;4939138;29;20114;-96
2021/12/28 03:17:59;;;;;;;27.70;14.65;;;-4.40;99.90;;;;;;4938856;29;20031;-96
2021/12/28 03:20:25;;;;;;;27.73;13.82;;;-4.40;99.90;;;;;;4938755;29;20086;-94
2021/12/28 03:22:51;;;;;;;27.65;13.82;;;-4.30;99.90;;;;;;4938902;29;20066;-96
2021/12/28 03:25:17;;;;;;;26.40;13.57;;;-4.30;99.90;;;;;;4938778;29;20051;-96
2021/12/28 03:27:43;;;;;;;25.73;13.07;;;-4.40;99.90;;;;;;4938887;29;20039;-96
2021/12/28 03:30:14;;;;;;;26.60;13.68;;;-4.40;99.90;;;;;;4938767;29;20042;-95
2021/12/28 03:32:40;;;;;;;30.75;12.68;;;-4.50;99.90;;;;;;4942293;29;20027;-96
2021/12/28 03:35:08;;;;;;;26.40;13.82;;;-4.50;99.90;;;;;;4942315;29;20034;-95
2021/12/28 03:37:34;;;;;;;27.25;14.27;;;-4.50;99.90;;;;;;4942334;29;20065;-96
2021/12/28 03:40:02;;;;;;;26.02;13.60;;;-4.50;99.90;;;;;;4942004;29;20061;-96
2021/12/28 03:42:28;;;;;;;25.25;13.68;;;-4.50;99.90;;;;;;4941859;29;20474;-95
2021/12/28 03:44:54;;;;;;;28.60;13.25;;;-4.50;99.90;;;;;;4941980;29;20024;-93
2021/12/28 03:47:19;;;;;;;26.30;13.68;;;-4.50;99.90;;;;;;4941790;29;20030;-95
2021/12/28 03:49:45;;;;;;;29.52;13.85;;;-4.50;99.90;;;;;;4941721;29;20490;-95
2021/12/28 03:52:11;;;;;;;29.42;15.07;;;-4.50;99.90;;;;;;4942479;29;20512;-94
2021/12/28 03:54:36;;;;;;;27.55;13.40;;;-4.60;99.90;;;;;;4941851;29;20051;-96
2021/12/28 03:57:03;;;;;;;23.77;12.57;;;-4.60;99.90;;;;;;4942121;29;20038;-95
2021/12/28 03:59:30;;;;;;;25.55;13.35;;;-4.70;99.90;;;;;;4941683;29;20118;-95
2021/12/28 04:01:56;;;;;;;24.23;13.52;;;-4.70;99.90;;;;;;4941742;29;20027;-94
2021/12/28 04:04:22;;;;;;;27.75;13.70;;;-4.60;99.90;;;;;;4941464;29;20122;-96
2021/12/28 04:06:48;;;;;;;26.85;13.57;;;-4.50;99.90;;;;;;4941728;29;20027;-95
2021/12/28 04:09:21;;;;;;;25.92;13.45;;;-4.50;99.90;;;;;;4941686;29;20030;-95
2021/12/28 04:11:47;;;;;;;26.55;14.05;;;-4.40;99.90;;;;;;4950326;29;20381;-95
2021/12/28 04:14:12;;;;;;;26.25;14.75;;;-4.50;99.90;;;;;;4957413;29;20031;-96
2021/12/28 04:16:39;;;;;;;28.63;14.55;;;-4.50;99.90;;;;;;4962707;29;20078;-96
2021/12/28 04:19:05;;;;;;;28.83;14.70;;;-4.50;99.90;;;;;;4959853;29;20372;-96
2021/12/28 04:21:32;;;;;;;31.02;14.65;;;-4.50;99.90;;;;;;4957870;29;20027;-96
2021/12/28 04:23:58;;;;;;;29.30;13.85;;;-4.50;99.90;;;;;;4957235;29;20494;-96
2021/12/28 04:26:27;;;;;;;30.45;13.65;;;-4.50;99.90;;;;;;4956928;29;20034;-96
2021/12/28 04:28:53;;;;;;;29.00;14.45;;;-4.40;99.90;;;;;;4957610;29;20034;-96
2021/12/28 04:31:19;;;;;;;27.38;14.55;;;-4.40;99.90;;;;;;4957534;29;20042;-96
2021/12/28 04:33:45;;;;;;;29.48;14.85;;;-4.30;99.90;;;;;;4958137;29;20028;-96
2021/12/28 04:36:15;;;;;;;26.50;14.25;;;-4.40;99.90;;;;;;4959004;29;20031;-96
2021/12/28 04:38:43;;;;;;;34.92;15.48;;;-4.40;99.90;;;;;;4958559;29;20125;-96
2021/12/28 04:41:11;;;;;;;40.08;17.48;;;-4.40;99.90;;;;;;4957627;29;20032;-96
2021/12/28 04:43:37;;;;;;;98.72;30.83;;;-4.30;99.90;;;;;;4966477;29;20098;-96
2021/12/28 04:46:05;;;;;;;28.52;14.48;;;-4.40;99.90;;;;;;4962900;29;20074;-96
2021/12/28 04:48:33;;;;;;;67.95;25.38;;;-4.40;99.90;;;;;;4970763;28;20042;-96
2021/12/28 04:51:01;;;;;;;28.52;15.02;;;-4.40;99.90;;;;;;4986283;28;20041;-96
2021/12/28 04:53:27;;;;;;;26.17;13.20;;;-4.40;99.90;;;;;;4956620;28;20030;-96
2021/12/28 04:55:53;;;;;;;36.33;18.25;;;-4.40;99.90;;;;;;4967433;28;20027;-96
2021/12/28 04:58:31;;;;;;;27.17;14.48;;;-4.30;99.90;;;;;;4971067;28;20034;-96
2021/12/28 05:01:16;;;;;;;28.60;14.52;;;-4.30;99.90;;;;;;4959193;28;20039;-96
2021/12/28 05:03:52;;;;;;;27.90;12.93;;;-4.40;99.90;;;;;;4976137;28;20095;-96
2021/12/28 05:06:19;;;;;;;30.33;14.18;;;-4.40;99.90;;;;;;4970455;28;20030;-96
2021/12/28 05:08:48;;;;;;;36.22;16.20;;;-4.40;99.90;;;;;;4989265;28;20025;-96
2021/12/28 05:11:14;;;;;;;38.80;15.88;;;-4.30;99.90;;;;;;4970086;28;20118;-96
2021/12/28 05:13:42;;;;;;;34.58;16.58;;;-4.30;99.90;;;;;;4965873;28;20098;-96
2021/12/28 05:16:13;;;;;;;34.05;16.10;;;-4.30;99.90;;;;;;4954365;28;20492;-96
2021/12/28 05:18:39;;;;;;;26.95;14.50;;;-4.20;99.90;;;;;;4962934;28;20023;-96
2021/12/28 05:21:04;;;;;;;29.58;15.18;;;-4.20;99.90;;;;;;4960178;28;20381;-95
2021/12/28 05:23:30;;;;;;;35.67;16.80;;;-4.20;99.90;;;;;;4959546;28;20034;-96
2021/12/28 05:25:56;;;;;;;26.48;14.73;;;-4.20;99.90;;;;;;4960170;28;20026;-95
2021/12/28 05:28:21;;;;;;;30.63;14.70;;;-4.30;99.90;;;;;;4963281;28;20035;-96
2021/12/28 05:34:07;;;;;;;115.85;46.97;;;-4.10;99.90;;;;;;5335107;23;20134;-96
2021/12/28 05:36:34;;;;;;;56.80;27.33;;;-4.10;99.90;;;;;;4968096;29;20027;-96
2021/12/28 05:39:00;;;;;;;66.93;26.40;;;-4.10;99.90;;;;;;4954285;29;20024;-95
2021/12/28 05:41:26;;;;;;;43.90;18.77;;;-4.10;99.90;;;;;;4949924;29;20047;-96
2021/12/28 05:43:52;;;;;;;131.23;39.80;;;-4.10;99.90;;;;;;4918416;29;20058;-96
2021/12/28 05:46:17;;;;;;;62.35;23.15;;;-4.10;99.90;;;;;;4951079;29;20035;-96
2021/12/28 05:48:43;;;;;;;36.83;16.35;;;-4.00;99.90;;;;;;4950386;29;20024;-95
2021/12/28 05:51:09;;;;;;;38.33;17.13;;;-4.00;99.90;;;;;;4947377;29;20050;-95
2021/12/28 05:53:35;;;;;;;31.30;15.40;;;-3.90;99.90;;;;;;4947439;29;20035;-94
2021/12/28 05:56:01;;;;;;;29.75;14.27;;;-3.90;99.90;;;;;;4948521;29;20052;-95
2021/12/28 05:58:26;;;;;;;31.33;14.38;;;-3.90;99.90;;;;;;4948038;29;20051;-95
2021/12/28 14:09:51;;;;;;;0.95;0.93;;;-3.60;99.90;;;;;;5134293;27;20363;-91
2021/12/28 14:12:16;;;;;;;0.20;0.20;;;-3.60;99.90;;;;;;5114618;28;20039;-91
2021/12/28 14:14:51;;;;;;;1.35;1.27;;;-3.80;99.90;;;;;;5115971;28;20023;-92
2021/12/28 14:17:19;;;;;;;1.63;1.52;;;-4.00;99.90;;;;;;5115644;28;20053;-92
2021/12/28 14:19:56;;;;;;;0.40;0.40;;;-4.10;99.90;;;;;;5114464;28;20020;-91
2021/12/28 14:22:22;;;;;;;1.42;1.35;;;-4.20;99.90;;;;;;5114622;28;20106;-92
2021/12/28 14:24:53;;;;;;;1.35;0.77;;;-4.30;99.90;;;;;;5114274;28;20019;-93
2021/12/28 14:27:28;;;;;;;2.08;1.55;;;-4.40;99.90;;;;;;5114235;28;20032;-89
2021/12/28 14:30:01;;;;;;;3.70;0.63;;;-4.50;99.90;;;;;;5113937;28;20027;-89
2021/12/28 14:32:48;;;;;;;2.75;2.08;;;-4.50;99.90;;;;;;5114115;28;20027;-89
2021/12/28 14:35:16;;;;;;;0.85;0.85;;;-4.50;99.90;;;;;;5113840;28;20358;-89
2021/12/28 14:37:43;;;;;;;1.08;0.63;;;-4.60;99.90;;;;;;5114127;28;20027;-89
2021/12/28 14:40:19;;;;;;;1.75;1.42;;;-4.60;99.90;;;;;;5114648;28;20023;-90
2021/12/28 14:42:47;;;;;;;1.17;0.60;;;-4.60;99.90;;;;;;5113328;28;20024;-90
2021/12/28 14:45:16;;;;;;;1.67;1.58;;;-4.60;99.90;;;;;;5113747;28;20125;-90
2021/12/28 14:47:43;;;;;;;1.53;1.07;;;-4.60;99.90;;;;;;5113419;28;20023;-89
2021/12/28 14:50:15;;;;;;;2.33;2.08;;;-4.60;99.90;;;;;;5113665;28;20312;-89
2021/12/28 14:52:52;;;;;;;0.70;0.57;;;-4.60;99.90;;;;;;5113865;28;20015;-89
2021/12/28 14:55:30;;;;;;;1.90;1.35;;;-4.60;99.90;;;;;;5145335;27;20015;-89
2021/12/28 14:58:06;;;;;;;5.28;1.23;;;-4.50;99.90;;;;;;5113357;28;20043;-89
2021/12/28 15:00:36;;;;;;;2.38;1.20;;;-4.50;99.90;;;;;;5113580;28;20092;-90
2021/12/28 15:03:13;;;;;;;10.10;1.45;;;-4.50;99.90;;;;;;5113638;28;20474;-90
2021/12/28 15:05:43;;;;;;;1.00;0.90;;;-4.50;99.90;;;;;;5113383;28;20434;-90
2021/12/28 15:08:19;;;;;;;0.90;0.90;;;-4.40;99.90;;;;;;5112810;28;20043;-89
2021/12/28 15:16:09;;;;;;;2.25;1.65;;;-4.30;99.90;;;;;;4998270;28;20066;-93
2021/12/28 15:18:35;;;;;;;0.93;0.93;;;-4.30;99.90;;;;;;5000742;28;20043;-95
2021/12/28 15:21:05;;;;;;;0.75;0.30;;;-4.30;99.90;;;;;;4989184;28;20042;-96
2021/12/28 15:23:39;;;;;;;0.60;0.60;;;-4.30;99.90;;;;;;4983752;28;20023;-95
2021/12/28 15:26:05;;;;;;;0.30;0.30;;;-4.20;99.90;;;;;;4987956;28;20050;-96
2021/12/28 15:28:30;;;;;;;0.10;0.10;;;-4.20;99.90;;;;;;4987335;28;20039;-96
2021/12/28 15:30:56;;;;;;;0.15;0.15;;;-4.10;99.90;;;;;;4982464;28;20038;-96
2021/12/28 15:33:22;;;;;;;1.20;0.88;;;-4.10;99.90;;;;;;4983217;28;20035;-96
2021/12/28 15:35:48;;;;;;;0.30;0.30;;;-4.00;99.90;;;;;;4978024;28;20085;-96
2021/12/28 15:38:16;;;;;;;0.20;0.20;;;-4.00;99.90;;;;;;4980598;28;20031;-96
2021/12/28 15:40:44;;;;;;;0.88;0.88;;;-3.90;99.90;;;;;;4984364;28;20023;-96
2021/12/28 15:43:30;;;;;;;0.57;0.45;;;-3.90;99.90;;;;;;4981058;28;20105;-95
2021/12/28 15:45:56;;;;;;;0.25;0.25;;;-3.90;99.90;;;;;;4983314;28;20019;-96
2021/12/28 15:48:26;;;;;;;0.10;0.10;;;-3.80;99.90;;;;;;4981725;28;20201;-95
2021/12/28 15:50:52;;;;;;;0.13;0.13;;;-3.70;99.90;;;;;;4982933;28;20023;-96
2021/12/28 15:53:19;;;;;;;0.22;0.22;;;-3.70;99.90;;;;;;4979456;28;20512;-96
2021/12/28 15:55:51;;;;;;;0.10;0.10;;;-3.70;99.90;;;;;;4985495;28;20027;-96
2021/12/28 15:58:17;;;;;;;0.10;0.10;;;-3.60;99.90;;;;;;4981169;28;20023;-96
2021/12/28 16:00:43;;;;;;;0.10;0.10;;;-3.60;99.90;;;;;;4988072;28;20022;-95
2021/12/28 16:03:09;;;;;;;0.10;0.10;;;-3.50;99.90;;;;;;4980813;28;20113;-95
2021/12/28 16:05:35;;;;;;;0.10;0.10;;;-3.50;99.90;;;;;;4978156;28;20433;-95
2021/12/28 16:08:01;;;;;;;0.10;0.10;;;-3.50;99.90;;;;;;4976833;28;20085;-96
2021/12/28 16:10:27;;;;;;;0.13;0.13;;;-3.40;99.90;;;;;;4977413;28;20053;-96
2021/12/28 16:12:53;;;;;;;0.20;0.20;;;-3.40;99.90;;;;;;4976664;28;20047;-95
2021/12/28 16:15:20;;;;;;;0.10;0.10;;;-3.40;99.90;;;;;;4976783;28;20073;-95
2021/12/28 16:17:51;;;;;;;0.10;0.10;;;-3.30;99.90;;;;;;4976805;28;20371;-96
2021/12/28 16:20:18;;;;;;;0.15;0.15;;;-3.30;99.90;;;;;;4976843;28;20027;-96
2021/12/28 16:22:44;;;;;;;0.10;0.10;;;-3.30;99.90;;;;;;4977539;28;20023;-96
2021/12/28 16:25:10;;;;;;;0.10;0.10;;;-3.20;99.90;;;;;;4977775;28;20093;-96
2021/12/28 16:27:36;;;;;;;0.10;0.10;;;-3.20;99.90;;;;;;4977972;28;20540;-95
2021/12/28 16:30:05;;;;;;;1.10;0.47;;;-3.20;99.90;;;;;;4976910;28;20030;-96
2021/12/28 16:32:31;;;;;;;0.10;0.10;;;-3.10;99.90;;;;;;4975276;28;20023;-96
2021/12/28 16:34:57;;;;;;;0.25;0.25;;;-3.10;99.90;;;;;;4976062;28;20417;-95
2021/12/28 16:37:23;;;;;;;0.20;0.20;;;-3.10;99.90;;;;;;4975855;28;20023;-92
2021/12/28 16:39:49;;;;;;;0.15;0.15;;;-3.10;99.90;;;;;;4975930;28;20050;-95
2021/12/28 16:42:15;;;;;;;0.10;0.10;;;-3.00;99.90;;;;;;4976010;28;20065;-94
2021/12/28 16:44:41;;;;;;;0.10;0.10;;;-3.00;99.90;;;;;;5008344;28;20030;-96
2021/12/28 16:47:07;;;;;;;0.10;0.10;;;-3.00;99.90;;;;;;4976737;28;20033;-95
2021/12/28 16:49:32;;;;;;;0.45;0.25;;;-3.00;99.90;;;;;;4977347;28;20037;-96
2021/12/28 16:51:58;;;;;;;0.10;0.10;;;-2.90;99.90;;;;;;4976220;28;20034;-96
2021/12/28 16:54:24;;;;;;;0.17;0.17;;;-2.90;99.90;;;;;;4976199;28;20033;-95
2021/12/28 16:56:51;;;;;;;0.13;0.13;;;-2.90;99.90;;;;;;4976013;28;20019;-95
2021/12/28 16:59:17;;;;;;;0.10;0.10;;;-2.90;99.90;;;;;;4976350;28;20026;-96
2021/12/28 17:01:45;;;;;;;4.13;0.90;;;-2.80;99.90;;;;;;4975705;28;20042;-96
2021/12/28 17:04:13;;;;;;;1.60;0.65;;;-2.80;99.90;;;;;;4975576;28;20026;-95
2021/12/28 17:06:39;;;;;;;0.22;0.22;;;-2.80;99.90;;;;;;4975297;28;20082;-94
2021/12/28 17:09:04;;;;;;;0.10;0.10;;;-2.80;99.90;;;;;;4975299;28;20030;-96
2021/12/28 17:11:30;;;;;;;0.47;0.45;;;-2.70;99.90;;;;;;4975098;28;20026;-96
2021/12/28 17:13:58;;;;;;;0.45;0.40;;;-2.70;99.90;;;;;;4975137;28;20027;-96
2021/12/28 17:16:24;;;;;;;0.20;0.20;;;-2.70;99.90;;;;;;4975768;28;20031;-96
2021/12/28 17:18:50;;;;;;;1.23;0.50;;;-2.60;99.90;;;;;;4975332;28;20023;-96
2021/12/28 17:21:18;;;;;;;0.20;0.20;;;-2.60;99.90;;;;;;4975219;28;20033;-89
2021/12/28 17:23:47;;;;;;;0.30;0.30;;;-2.70;99.90;;;;;;4974810;28;20022;-89
2021/12/28 17:26:14;;;;;;;0.22;0.22;;;-2.60;99.90;;;;;;4974873;28;20085;-90
2021/12/28 17:28:41;;;;;;;1.55;0.35;;;-2.60;99.90;;;;;;4974792;28;20393;-90
2021/12/28 17:31:07;;;;;;;0.40;0.40;;;-2.60;99.90;;;;;;4974836;28;20034;-90
2021/12/28 17:33:33;;;;;;;0.13;0.13;;;-2.60;99.90;;;;;;4974844;28;20023;-90
2021/12/28 17:36:02;;;;;;;0.10;0.10;;;-2.60;99.90;;;;;;4974791;28;20082;-90
2021/12/28 17:38:27;;;;;;;0.10;0.10;;;-2.60;99.90;;;;;;4974582;28;20026;-90
2021/12/28 17:40:53;;;;;;;0.20;0.20;;;-2.50;99.90;;;;;;4974617;28;20038;-91
2021/12/28 17:43:20;;;;;;;0.25;0.25;;;-2.50;99.90;;;;;;4974680;28;20577;-90
2021/12/28 17:45:46;;;;;;;0.10;0.10;;;-2.50;99.90;;;;;;4974845;28;20031;-91
2021/12/28 17:48:13;;;;;;;0.20;0.20;;;-2.50;99.90;;;;;;4974530;28;20023;-90
2021/12/28 17:50:42;;;;;;;0.15;0.15;;;-2.50;99.90;;;;;;4972784;28;20027;-90
2021/12/28 17:53:08;;;;;;;0.10;0.10;;;-2.50;99.90;;;;;;4960449;28;20129;-90
2021/12/28 17:55:34;;;;;;;0.10;0.10;;;-2.50;99.90;;;;;;4974602;28;20449;-90
2021/12/28 17:57:59;;;;;;;0.10;0.10;;;-2.50;99.90;;;;;;4973414;28;20458;-90
2021/12/28 18:00:26;;;;;;;0.10;0.10;;;-2.50;99.90;;;;;;4955834;29;20059;-90
2021/12/28 18:02:52;;;;;;;0.10;0.10;;;-2.40;99.90;;;;;;4970417;28;20085;-90
2021/12/28 18:05:19;;;;;;;0.38;0.15;;;-2.50;99.90;;;;;;4988391;28;20035;-90
2021/12/28 18:07:46;;;;;;;0.43;0.43;;;-2.40;99.90;;;;;;4962605;28;20130;-91
2021/12/28 18:10:12;;;;;;;0.20;0.20;;;-2.40;99.90;;;;;;4955392;29;20055;-90
2021/12/28 18:12:38;;;;;;;0.10;0.10;;;-2.40;99.90;;;;;;4963798;28;20098;-90
2021/12/28 18:15:06;;;;;;;0.10;0.10;;;-2.40;99.90;;;;;;4973336;28;20489;-90
2021/12/28 18:17:32;;;;;;;0.10;0.10;;;-2.40;99.90;;;;;;4974370;28;20050;-90
2021/12/28 18:19:59;;;;;;;0.10;0.10;;;-2.40;99.90;;;;;;4974113;28;20035;-90
2021/12/28 18:22:25;;;;;;;0.80;0.30;;;-2.40;99.90;;;;;;4957177;28;20036;-90
2021/12/28 18:24:51;;;;;;;0.10;0.10;;;-2.40;99.90;;;;;;4973040;28;20027;-90
2021/12/28 18:27:18;;;;;;;1.45;0.20;;;-2.40;99.90;;;;;;4971242;28;20038;-90
2021/12/28 18:29:44;;;;;;;0.30;0.30;;;-2.40;99.90;;;;;;4954365;28;20398;-90
2021/12/28 18:32:11;;;;;;;0.28;0.28;;;-2.40;99.90;;;;;;4955187;29;20028;-90
2021/12/28 18:34:37;;;;;;;0.10;0.10;;;-2.40;99.90;;;;;;4970513;28;20023;-90
2021/12/28 18:37:05;;;;;;;0.20;0.20;;;-2.40;99.90;;;;;;4973865;28;20473;-90
2021/12/28 18:39:33;;;;;;;0.10;0.10;;;-2.40;99.90;;;;;;4974086;28;20031;-90
2021/12/28 18:42:00;;;;;;;0.15;0.15;;;-2.40;99.90;;;;;;4973937;28;20432;-92
2021/12/28 18:44:29;;;;;;;0.10;0.10;;;-2.40;99.90;;;;;;4973571;28;20507;-90
2021/12/28 18:46:55;;;;;;;0.10;0.10;;;-2.30;99.90;;;;;;4974231;28;20038;-90
2021/12/28 18:49:21;;;;;;;0.17;0.17;;;-2.30;99.90;;;;;;4974006;28;20026;-90
2021/12/28 18:51:47;;;;;;;0.25;0.25;;;-2.40;99.90;;;;;;4962586;28;20081;-89
2021/12/28 18:54:14;;;;;;;0.10;0.10;;;-2.40;99.90;;;;;;4954936;28;20035;-89
2021/12/28 18:56:41;;;;;;;0.30;0.30;;;-2.40;99.90;;;;;;4958237;29;20020;-90
2021/12/28 18:59:10;;;;;;;0.10;0.10;;;-2.30;99.90;;;;;;4958052;28;20031;-90
2021/12/28 19:01:35;;;;;;;0.00;0.00;;;-2.30;99.90;;;;;;4972748;28;20031;-90
2021/12/28 19:04:03;;;;;;;0.43;0.40;;;-2.30;99.90;;;;;;4977831;28;20031;-89
2021/12/28 19:06:31;;;;;;;0.20;0.20;;;-2.30;99.90;;;;;;4977510;28;20474;-90
2021/12/28 19:08:57;;;;;;;0.10;0.10;;;-2.30;99.90;;;;;;4977489;28;20109;-90
2021/12/28 19:11:23;;;;;;;0.20;0.20;;;-2.30;99.90;;;;;;4977210;28;20050;-90
2021/12/28 19:13:50;;;;;;;0.10;0.10;;;-2.30;99.90;;;;;;4977151;28;20031;-90
2021/12/28 19:16:17;;;;;;;0.10;0.10;;;-2.40;99.90;;;;;;4977051;28;20031;-89
2021/12/28 19:18:44;;;;;;;0.35;0.35;;;-2.30;99.90;;;;;;4977562;28;20035;-89
2021/12/28 19:21:11;;;;;;;0.13;0.13;;;-2.30;99.90;;;;;;4977497;28;20059;-89
2021/12/28 19:23:37;;;;;;;0.10;0.10;;;-2.30;99.90;;;;;;4977440;28;20031;-89
2021/12/28 19:26:03;;;;;;;0.10;0.10;;;-2.30;99.90;;;;;;4977306;28;20041;-89
2021/12/28 19:28:30;;;;;;;0.57;0.50;;;-2.30;99.90;;;;;;4976748;28;20496;-90
2021/12/28 19:30:58;;;;;;;0.22;0.22;;;-2.20;99.90;;;;;;4976889;28;20498;-90
2021/12/28 19:33:26;;;;;;;1.48;0.70;;;-2.30;99.90;;;;;;4977231;28;20051;-90
2021/12/28 19:35:53;;;;;;;0.10;0.10;;;-2.20;99.90;;;;;;4977259;28;20367;-89
2021/12/28 19:38:19;;;;;;;0.10;0.10;;;-2.30;99.90;;;;;;4977662;28;20026;-90
2021/12/28 19:40:45;;;;;;;0.10;0.10;;;-2.20;99.90;;;;;;4976530;28;20393;-89
2021/12/28 19:43:11;;;;;;;0.20;0.15;;;-2.20;99.90;;;;;;4976593;28;20050;-90
2021/12/28 19:45:37;;;;;;;0.93;0.40;;;-2.20;99.90;;;;;;4976436;28;20597;-90
2021/12/28 19:48:05;;;;;;;1.45;0.40;;;-2.20;99.90;;;;;;4976800;28;20031;-90
2021/12/28 19:50:33;;;;;;;0.10;0.10;;;-2.20;99.90;;;;;;4977863;28;20074;-89
2021/12/28 19:52:59;;;;;;;0.68;0.30;;;-2.20;99.90;;;;;;4976755;28;20027;-90
2021/12/28 19:55:26;;;;;;;0.10;0.10;;;-2.20;99.90;;;;;;4976680;28;20026;-90
2021/12/28 19:57:54;;;;;;;0.10;0.10;;;-2.20;99.90;;;;;;4976410;28;20031;-89
2021/12/28 20:00:27;;;;;;;0.10;0.10;;;-2.20;99.90;;;;;;4976720;28;20037;-89
2021/12/28 20:02:53;;;;;;;0.30;0.30;;;-2.20;99.90;;;;;;4976267;28;20054;-90
2021/12/28 20:05:19;;;;;;;0.10;0.10;;;-2.20;99.90;;;;;;4976325;28;20033;-89
2021/12/28 20:07:46;;;;;;;0.17;0.17;;;-2.20;99.90;;;;;;4976352;28;20114;-89
2021/12/28 20:10:16;;;;;;;0.10;0.10;;;-2.20;99.90;;;;;;4976390;28;20023;-90
2021/12/28 20:12:42;;;;;;;;;;;-2.20;99.90;;;;;;4977654;28;20042;-89
2021/12/28 20:15:09;;;;;;;0.10;0.10;;;-2.20;99.90;;;;;;4976317;28;19922;-89
2021/12/28 20:17:34;;;;;;;0.25;0.25;;;-2.10;99.90;;;;;;4976181;28;20027;-89
2021/12/28 20:20:03;;;;;;;0.10;0.10;;;-2.10;99.90;;;;;;4976178;28;20030;-89
2021/12/28 20:22:28;;;;;;;0.22;0.22;;;-2.20;99.90;;;;;;4975878;28;20600;-89
2021/12/28 20:24:54;;;;;;;0.10;0.10;;;-2.20;99.90;;;;;;4976132;28;20051;-89
2021/12/28 20:27:20;;;;;;;0.00;0.00;;;-2.20;99.90;;;;;;4976181;28;20058;-89
2021/12/28 20:29:46;;;;;;;0.32;0.20;;;-2.20;99.90;;;;;;4975918;28;20035;-89
2021/12/28 20:32:12;;;;;;;0.03;0.03;;;-2.20;99.90;;;;;;4976350;28;20023;-90
2021/12/28 20:34:38;;;;;;;0.10;0.10;;;-2.10;99.90;;;;;;4976715;28;20022;-89
2021/12/28 20:37:04;;;;;;;0.10;0.10;;;-2.10;99.90;;;;;;4976011;28;20026;-89
2021/12/28 20:39:30;;;;;;;0.13;0.13;;;-2.20;99.90;;;;;;4975844;28;20077;-89
2021/12/28 20:41:56;;;;;;;0.25;0.13;;;-2.10;99.90;;;;;;4975826;28;20027;-89
2021/12/28 20:44:24;;;;;;;0.10;0.10;;;-2.10;99.90;;;;;;4975825;28;20034;-89
2021/12/28 20:46:54;;;;;;;0.20;0.20;;;-2.10;99.90;;;;;;4975862;28;20034;-89
2021/12/28 20:49:20;;;;;;;0.30;0.17;;;-2.20;99.90;;;;;;4976448;28;20031;-89
2021/12/28 20:51:46;;;;;;;0.10;0.10;;;-2.10;99.90;;;;;;4975332;28;20042;-90
2021/12/28 20:54:14;;;;;;;0.45;0.32;;;-2.10;99.90;;;;;;4975799;28;20031;-89
2021/12/28 20:56:40;;;;;;;0.20;0.20;;;-2.10;99.90;;;;;;4975541;28;20449;-89
2021/12/28 20:59:06;;;;;;;0.20;0.20;;;-2.10;99.90;;;;;;4975944;28;20484;-89